메인 페이지
METAR-TAF:

METAR-TAF

공항 :

Churchill, 매니토바, 캐나다

위도: 58-44N, 경도: 094-04W, 고도: 28m

현재 날씨관측

예보는 21분 전, 07:07시(UTC)에 발표되었습니다.
북북서7kt
온도 -16°C
습도 84%
기압 1022 hPa
시정: 24.1km
맑음

METAR: CYYQ 210707Z 34007KT 15SM SKC M16/M18 A3019 RMK SLP229

시각: 02:28 (07:28 UTC)

예보

예보는 1 시간 48분 전, 05:40시(UTC)에 발표되었습니다.
예보 대상 시간: 21일 06시부터 22일 06시까지 (UTC)
10kt
시정: 10km
고도 1200ft 상공 구름 보통
일시적
21일 06시부터 21일 15시까지 (UTC)
시정: 10km
고도 800ft 상공 구름 조금
고도 1200ft 상공 구름 많음
약한눈
21일 1500시부터 (UTC)
북동5kt
시정: 10km
고도 1500ft 상공 구름 조금
고도 14000ft 상공 구름 보통
21일 1900시부터 (UTC)
동남동5kt
시정: 10km
고도 11000ft 상공 구름 많음
21일 2300시부터 (UTC)
남동8kt
시정: 10km
고도 5000ft 상공 구름 많음
일시적
21일 23시부터 22일 06시까지 (UTC)
시정: 10km
고도 3000ft 상공 구름 많음
약한소낙눈

TAF: CYYQ 210540Z 2106/2206 36010KT P6SM SCT012 TEMPO 2106/2115 P6SM -SN FEW008 BKN012 FM211500 05005KT P6SM FEW015 SCT140 FM211900 12005KT P6SM BKN110 FM212300 13008KT P6SM BKN050 TEMPO 2123/2206 P6SM -SHSN BKN030 RMK NXT FCST BY 211200Z

4,000개 이상의 공항 관측 자료 및 예보 (METAR 및 TAF 보고).

지도상에서 검색 가능한 기상관측소가 노란 점과 빨간 점으로 표시되어 있습니다.

기상관측소 명을 보려면 표시 위로 마우스를 이동하세요.

날씨 관측과 예보를 보려면 클릭하세요.

지도 변경 : 확대하려면 엑스 표시가 있는 녹색 버튼, 축소하려면 빼기 표시가 있는 녹색 버튼, 다음 페이지의 지도를 보려면 녹색 화살표를 클릭하세요.


METAR-TAF: